Time;durP1;ratioP1;P1;durP2;ratioP2;P2;SDS_P1;SDS_P2;PMS_P1;PMS_P2;Temp;Humidity;BMP_temperature;BMP_pressure;BME280_temperature;BME280_humidity;BME280_pressure;Samples;Min_cycle;Max_cycle;Signal;HPM_P1;HPM_P2
2023/12/10 00:00:05;;;;;;;1.10;0.93;;;8.90;99.90;;;;;;5045505;28;20552;-68
2023/12/10 00:02:31;;;;;;;0.10;0.10;;;9.00;99.90;;;;;;5044349;28;20172;-68
2023/12/10 00:04:57;;;;;;;2.00;1.90;;;9.00;99.90;;;;;;5042494;28;20048;-68
2023/12/10 00:07:23;;;;;;;0.75;0.75;;;9.00;99.90;;;;;;5032886;28;20045;-68
2023/12/10 00:09:48;;;;;;;10.15;5.20;;;9.00;99.90;;;;;;5037115;28;20049;-68
2023/12/10 00:12:14;;;;;;;0.68;0.68;;;9.00;99.90;;;;;;5038921;28;20068;-68
2023/12/10 00:14:40;;;;;;;0.00;0.00;;;9.00;99.90;;;;;;5042889;28;20484;-68
2023/12/10 00:17:05;;;;;;;1.58;1.23;;;9.00;99.90;;;;;;5041129;28;20044;-68
2023/12/10 00:19:31;;;;;;;0.63;0.63;;;9.00;99.90;;;;;;5038202;28;20029;-68
2023/12/10 00:21:57;;;;;;;1.80;1.65;;;9.00;99.90;;;;;;5041387;28;20073;-68
2023/12/10 00:24:23;;;;;;;0.20;0.20;;;9.00;99.90;;;;;;5045300;28;20405;-68
2023/12/10 00:26:49;;;;;;;4.65;1.95;;;9.00;99.90;;;;;;5038924;28;20081;-68
2023/12/10 00:29:15;;;;;;;0.10;0.10;;;9.00;99.90;;;;;;5041754;28;20094;-68
2023/12/10 00:31:44;;;;;;;6.13;1.80;;;9.00;99.90;;;;;;5041843;28;20044;-68
2023/12/10 00:34:10;;;;;;;0.20;0.20;;;8.90;99.90;;;;;;5044417;28;20045;-68
2023/12/10 00:36:36;;;;;;;0.00;0.00;;;8.90;99.90;;;;;;5041324;28;20537;-68
2023/12/10 00:39:05;;;;;;;1.48;0.85;;;8.80;99.90;;;;;;5039844;28;20076;-68
2023/12/10 00:41:33;;;;;;;0.77;0.77;;;8.80;99.90;;;;;;5045207;28;20099;-67
2023/12/10 00:43:59;;;;;;;0.63;0.63;;;8.60;99.90;;;;;;5046267;28;20036;-68
2023/12/10 00:46:25;;;;;;;2.08;1.58;;;8.60;99.90;;;;;;5038459;28;20547;-68
2023/12/10 00:48:50;;;;;;;0.20;0.20;;;8.50;99.90;;;;;;5046324;28;20045;-68
2023/12/10 00:51:20;;;;;;;0.52;0.52;;;8.40;99.90;;;;;;5045578;28;20044;-68
2023/12/10 00:53:46;;;;;;;0.10;0.10;;;8.40;99.90;;;;;;5041600;28;20069;-68
2023/12/10 00:56:12;;;;;;;1.85;1.45;;;8.30;99.90;;;;;;5040551;28;20498;-68
2023/12/10 00:58:37;;;;;;;0.95;0.95;;;8.30;99.90;;;;;;5045261;28;20127;-69
2023/12/10 01:01:03;;;;;;;0.00;0.00;;;8.30;99.90;;;;;;5042331;28;20041;-68
2023/12/10 01:03:29;;;;;;;1.85;1.10;;;8.30;99.90;;;;;;5045796;28;20451;-68
2023/12/10 01:05:55;;;;;;;0.10;0.10;;;8.30;99.90;;;;;;5055358;28;20486;-68
2023/12/10 01:08:20;;;;;;;0.13;0.13;;;8.20;99.90;;;;;;5045529;28;20052;-68
2023/12/10 01:10:46;;;;;;;0.10;0.10;;;8.20;99.90;;;;;;5039102;28;20048;-68
2023/12/10 01:13:12;;;;;;;0.77;0.70;;;8.20;99.90;;;;;;5050152;28;20041;-68
2023/12/10 01:15:37;;;;;;;0.55;0.55;;;8.30;99.90;;;;;;5041303;28;20049;-69
2023/12/10 01:18:03;;;;;;;9.85;1.13;;;8.20;99.90;;;;;;5049661;28;20048;-69
2023/12/10 01:20:30;;;;;;;0.35;0.35;;;8.20;99.90;;;;;;5046818;28;20032;-69
2023/12/10 01:22:56;;;;;;;0.10;0.10;;;8.20;99.90;;;;;;5039080;28;20049;-69
2023/12/10 01:25:22;;;;;;;1.55;1.45;;;8.20;99.90;;;;;;5037783;28;20046;-69
2023/12/10 01:27:48;;;;;;;11.60;3.22;;;8.20;99.90;;;;;;5038855;28;20049;-69
2023/12/10 01:30:13;;;;;;;3.45;3.20;;;8.20;99.90;;;;;;5041051;28;20056;-69
2023/12/10 01:32:40;;;;;;;0.10;0.10;;;8.10;99.90;;;;;;5049327;28;20408;-69
2023/12/10 01:35:08;;;;;;;0.40;0.40;;;8.10;99.90;;;;;;5039026;28;20040;-69
2023/12/10 01:37:34;;;;;;;0.10;0.10;;;8.10;99.90;;;;;;5059533;28;20079;-69
2023/12/10 01:39:59;;;;;;;1.73;0.52;;;8.10;99.90;;;;;;5044239;28;20067;-69
2023/12/10 01:42:25;;;;;;;0.00;0.00;;;8.20;99.90;;;;;;5039663;28;20041;-69
2023/12/10 01:44:51;;;;;;;0.20;0.20;;;8.10;99.90;;;;;;5036245;28;20048;-69
2023/12/10 01:47:18;;;;;;;0.20;0.20;;;8.10;99.90;;;;;;5043172;28;20049;-69
2023/12/10 01:49:46;;;;;;;7.45;1.75;;;8.10;99.90;;;;;;5038694;28;20119;-69
2023/12/10 01:52:12;;;;;;;0.20;0.20;;;8.10;99.90;;;;;;5046670;28;20511;-69
2023/12/10 01:54:38;;;;;;;0.85;0.85;;;8.10;99.90;;;;;;5043712;28;20032;-70
2023/12/10 01:57:04;;;;;;;0.10;0.10;;;8.10;99.90;;;;;;5044550;28;20045;-70
2023/12/10 01:59:30;;;;;;;0.63;0.63;;;8.10;99.90;;;;;;5046358;28;20480;-69
2023/12/10 02:01:57;;;;;;;1.05;1.05;;;8.10;99.90;;;;;;5049873;28;20045;-70
2023/12/10 02:04:22;;;;;;;0.50;0.50;;;8.10;99.90;;;;;;5040798;28;20110;-69
2023/12/10 02:06:48;;;;;;;0.10;0.10;;;8.10;99.90;;;;;;5032426;28;20489;-69
2023/12/10 02:09:18;;;;;;;0.20;0.20;;;8.20;99.90;;;;;;5044320;28;20041;-69
2023/12/10 02:11:44;;;;;;;5.57;3.50;;;8.20;99.90;;;;;;5045303;28;20430;-69
2023/12/10 02:14:10;;;;;;;1.67;1.55;;;8.20;99.90;;;;;;5042695;28;20100;-68
2023/12/10 02:16:35;;;;;;;0.15;0.15;;;8.30;99.90;;;;;;5042190;28;20044;-69
2023/12/10 02:19:01;;;;;;;0.30;0.30;;;8.30;99.90;;;;;;5037038;28;20041;-69
2023/12/10 02:21:30;;;;;;;0.73;0.73;;;8.20;99.90;;;;;;5049390;28;20040;-69
2023/12/10 02:24:03;;;;;;;0.28;0.28;;;8.20;99.90;;;;;;5046537;28;20045;-69
2023/12/10 02:26:30;;;;;;;0.75;0.63;;;8.20;99.90;;;;;;5043106;28;20401;-69
2023/12/10 02:28:56;;;;;;;0.47;0.47;;;8.20;99.90;;;;;;5035571;28;20053;-69
2023/12/10 02:31:21;;;;;;;3.03;0.88;;;8.20;99.90;;;;;;5045451;28;20049;-69
2023/12/10 02:33:47;;;;;;;0.10;0.10;;;8.10;99.90;;;;;;5041237;28;20134;-69
2023/12/10 02:36:13;;;;;;;1.85;0.95;;;8.10;99.90;;;;;;5037831;28;20168;-69
2023/12/10 02:38:39;;;;;;;0.10;0.10;;;8.10;99.90;;;;;;5040210;28;20048;-69
2023/12/10 02:41:05;;;;;;;0.75;0.75;;;8.10;99.90;;;;;;5043157;28;20494;-70
2023/12/10 02:43:31;;;;;;;0.10;0.10;;;8.10;99.90;;;;;;5041088;28;20099;-69
2023/12/10 02:45:57;;;;;;;0.10;0.10;;;8.10;99.90;;;;;;5042882;28;20254;-69
2023/12/10 02:48:23;;;;;;;0.45;0.45;;;8.10;99.90;;;;;;5040679;28;20043;-69
2023/12/10 02:50:51;;;;;;;0.60;0.60;;;8.10;99.90;;;;;;5046832;28;20072;-69
2023/12/10 02:53:17;;;;;;;6.03;2.40;;;8.10;99.90;;;;;;5035780;28;20046;-69
2023/12/10 02:55:43;;;;;;;1.88;1.15;;;8.10;99.90;;;;;;5035459;28;20179;-69
2023/12/10 02:58:09;;;;;;;0.30;0.30;;;8.10;99.90;;;;;;5039955;28;20181;-69
2023/12/10 03:00:34;;;;;;;1.38;0.73;;;8.10;99.90;;;;;;5040443;28;20068;-69
2023/12/10 03:03:01;;;;;;;4.85;3.50;;;8.10;99.90;;;;;;5045976;28;20071;-69
2023/12/10 03:05:26;;;;;;;0.10;0.10;;;8.10;99.90;;;;;;5039756;28;20437;-69
2023/12/10 03:07:52;;;;;;;0.10;0.10;;;8.10;99.90;;;;;;5042909;28;20214;-69
2023/12/10 03:10:18;;;;;;;0.68;0.68;;;8.10;99.90;;;;;;5044821;28;20041;-69
2023/12/10 03:12:44;;;;;;;0.57;0.57;;;8.10;99.90;;;;;;5046836;28;20504;-69
2023/12/10 03:15:09;;;;;;;0.00;0.00;;;8.20;99.90;;;;;;5045390;28;20495;-69
2023/12/10 03:17:35;;;;;;;58.45;1.63;;;8.20;99.90;;;;;;5040378;28;20404;-70
2023/12/10 03:20:01;;;;;;;0.25;0.25;;;8.20;99.90;;;;;;5041874;28;20045;-70
2023/12/10 03:22:26;;;;;;;0.10;0.10;;;8.20;99.90;;;;;;5043783;28;20064;-70
2023/12/10 03:24:52;;;;;;;1.92;1.75;;;8.30;99.90;;;;;;5041707;28;20057;-70
2023/12/10 03:27:18;;;;;;;0.10;0.10;;;8.30;99.90;;;;;;5044959;28;20098;-70
2023/12/10 03:29:43;;;;;;;0.10;0.10;;;8.30;99.90;;;;;;5039728;28;20412;-71
2023/12/10 03:32:09;;;;;;;0.15;0.15;;;8.30;99.90;;;;;;5042235;28;20471;-70
2023/12/10 03:34:35;;;;;;;0.10;0.10;;;8.30;99.90;;;;;;5041425;28;20078;-70
2023/12/10 03:37:00;;;;;;;0.55;0.55;;;8.30;99.90;;;;;;5041253;28;20049;-70
2023/12/10 03:39:26;;;;;;;0.28;0.28;;;8.40;99.90;;;;;;5042161;28;20037;-70
2023/12/10 03:41:52;;;;;;;0.10;0.10;;;8.40;99.90;;;;;;5037196;28;20057;-70
2023/12/10 03:44:18;;;;;;;0.10;0.10;;;8.40;99.90;;;;;;5043048;28;20037;-70
2023/12/10 03:46:44;;;;;;;0.38;0.38;;;8.40;99.90;;;;;;5037213;28;20477;-71
2023/12/10 03:49:10;;;;;;;0.30;0.30;;;8.40;99.90;;;;;;5035423;28;20048;-71
2023/12/10 03:51:35;;;;;;;1.83;1.73;;;8.40;99.90;;;;;;5037094;28;20063;-71
2023/12/10 03:54:01;;;;;;;0.20;0.20;;;8.40;99.90;;;;;;5037768;28;20116;-71
2023/12/10 03:56:27;;;;;;;0.95;0.95;;;8.40;99.90;;;;;;5040657;28;20484;-71
2023/12/10 03:58:52;;;;;;;0.15;0.15;;;8.40;99.90;;;;;;5036231;28;20714;-71
2023/12/10 04:01:18;;;;;;;0.68;0.68;;;8.50;99.90;;;;;;5044889;28;20041;-70
2023/12/10 04:03:44;;;;;;;0.75;0.75;;;8.40;99.90;;;;;;5045608;28;20077;-70
2023/12/10 04:06:09;;;;;;;3.55;3.20;;;8.50;99.90;;;;;;5037813;28;20063;-69
2023/12/10 04:08:35;;;;;;;8.85;3.30;;;8.50;99.90;;;;;;5045716;28;20467;-70
2023/12/10 04:11:02;;;;;;;0.10;0.10;;;8.50;99.90;;;;;;5046702;28;20069;-70
2023/12/10 04:13:27;;;;;;;0.10;0.10;;;8.50;99.90;;;;;;5045104;28;20055;-69
2023/12/10 04:15:53;;;;;;;0.95;0.93;;;8.50;99.90;;;;;;5036957;28;20045;-70
2023/12/10 04:18:19;;;;;;;0.17;0.17;;;8.50;99.90;;;;;;5040601;28;20041;-69
2023/12/10 04:20:44;;;;;;;0.90;0.82;;;8.50;99.90;;;;;;5046604;28;20045;-70
2023/12/10 04:23:10;;;;;;;3.40;2.67;;;8.50;99.90;;;;;;5041828;28;20397;-69
2023/12/10 04:25:36;;;;;;;0.10;0.10;;;8.50;99.90;;;;;;5027959;28;20045;-70
2023/12/10 04:28:01;;;;;;;0.13;0.13;;;8.50;99.90;;;;;;5036420;28;20064;-70
2023/12/10 04:30:27;;;;;;;0.10;0.10;;;8.50;99.90;;;;;;5035346;28;20041;-70
2023/12/10 04:32:53;;;;;;;0.22;0.22;;;8.50;99.90;;;;;;5036184;28;20083;-70
2023/12/10 04:35:19;;;;;;;0.95;0.95;;;8.50;99.90;;;;;;5042499;28;20037;-70
2023/12/10 04:37:45;;;;;;;1.13;0.85;;;8.50;99.90;;;;;;5041924;28;20064;-70
2023/12/10 04:40:11;;;;;;;0.13;0.13;;;8.50;99.90;;;;;;5040955;28;20419;-70
2023/12/10 04:42:38;;;;;;;0.52;0.52;;;8.50;99.90;;;;;;5041177;28;20431;-70
2023/12/10 04:45:06;;;;;;;0.20;0.20;;;8.50;99.90;;;;;;5043009;28;20143;-70
2023/12/10 04:47:32;;;;;;;0.00;0.00;;;8.50;99.90;;;;;;5035807;28;20038;-70
2023/12/10 04:49:58;;;;;;;0.43;0.43;;;8.50;99.90;;;;;;5044377;28;20408;-69
2023/12/10 04:52:24;;;;;;;0.10;0.10;;;8.60;99.90;;;;;;5036329;28;20048;-69
2023/12/10 04:54:49;;;;;;;0.43;0.32;;;8.50;99.90;;;;;;5045379;28;20045;-70
2023/12/10 04:57:15;;;;;;;7.88;1.27;;;8.60;99.90;;;;;;5045714;28;20522;-70
2023/12/10 04:59:41;;;;;;;4.10;3.72;;;8.60;99.90;;;;;;5038449;28;20127;-72
2023/12/10 05:02:06;;;;;;;0.10;0.10;;;8.60;99.90;;;;;;5042258;28;20396;-71
2023/12/10 05:04:32;;;;;;;1.10;1.05;;;8.60;99.90;;;;;;5035878;28;20080;-71
2023/12/10 05:06:57;;;;;;;0.10;0.10;;;8.50;99.90;;;;;;5040015;28;20045;-72
2023/12/10 05:09:23;;;;;;;0.10;0.10;;;8.60;99.90;;;;;;5042387;28;20044;-72
2023/12/10 05:11:49;;;;;;;0.10;0.10;;;8.60;99.90;;;;;;5054233;28;20053;-72
2023/12/10 05:14:15;;;;;;;0.10;0.10;;;8.50;99.90;;;;;;5038276;28;20048;-72
2023/12/10 05:16:41;;;;;;;5.57;1.45;;;8.50;99.90;;;;;;5042271;28;20095;-71
2023/12/10 05:19:06;;;;;;;0.43;0.43;;;8.50;99.90;;;;;;5035761;28;20052;-71
2023/12/10 05:21:33;;;;;;;0.10;0.10;;;8.50;99.90;;;;;;5037001;28;20033;-70
2023/12/10 05:23:59;;;;;;;0.10;0.10;;;8.50;99.90;;;;;;5043315;28;20112;-70
2023/12/10 05:26:24;;;;;;;0.22;0.22;;;8.50;99.90;;;;;;5056470;28;20047;-70
2023/12/10 05:28:50;;;;;;;2.83;2.05;;;8.50;99.90;;;;;;5051696;28;20043;-70
2023/12/10 05:31:15;;;;;;;0.93;0.93;;;8.50;99.90;;;;;;5049337;28;20052;-70
2023/12/10 05:33:41;;;;;;;0.00;0.00;;;8.50;99.90;;;;;;5046089;28;20033;-70
2023/12/10 05:36:07;;;;;;;3.97;1.98;;;8.50;99.90;;;;;;5037591;28;20052;-70
2023/12/10 05:38:33;;;;;;;0.85;0.73;;;8.50;99.90;;;;;;5042819;28;20041;-70
2023/12/10 05:40:59;;;;;;;0.77;0.77;;;8.50;99.90;;;;;;5041363;28;20483;-70
2023/12/10 05:43:24;;;;;;;0.43;0.43;;;8.50;99.90;;;;;;5039478;28;20056;-70
2023/12/10 05:45:50;;;;;;;0.10;0.10;;;8.50;99.90;;;;;;5033800;28;20041;-70
2023/12/10 05:48:16;;;;;;;1.08;1.08;;;8.50;99.90;;;;;;5042758;28;20554;-69
2023/12/10 05:50:41;;;;;;;0.00;0.00;;;8.50;99.90;;;;;;5039795;28;20075;-69
2023/12/10 05:53:07;;;;;;;3.42;1.17;;;8.50;99.90;;;;;;5042787;28;20045;-69
2023/12/10 05:55:33;;;;;;;0.25;0.25;;;8.50;99.90;;;;;;5045114;28;20045;-69
2023/12/10 05:57:58;;;;;;;0.80;0.73;;;8.50;99.90;;;;;;5042515;28;20044;-69
2023/12/10 06:00:24;;;;;;;1.48;1.35;;;8.50;99.90;;;;;;5036007;28;20041;-70
2023/12/10 06:02:49;;;;;;;0.10;0.10;;;8.50;99.90;;;;;;5043805;28;20060;-70
2023/12/10 06:05:15;;;;;;;0.00;0.00;;;8.50;99.90;;;;;;5041223;28;20061;-70
2023/12/10 06:07:41;;;;;;;0.10;0.10;;;8.50;99.90;;;;;;5041722;28;20033;-70
2023/12/10 06:10:07;;;;;;;0.10;0.10;;;8.50;99.90;;;;;;5048645;28;20053;-70
2023/12/10 06:12:33;;;;;;;0.10;0.10;;;8.50;99.90;;;;;;5034534;28;20041;-70
2023/12/10 06:14:58;;;;;;;12.02;2.40;;;8.60;99.90;;;;;;5046737;28;20091;-70
2023/12/10 06:17:24;;;;;;;0.00;0.00;;;8.60;99.90;;;;;;5045321;28;20128;-70
2023/12/10 06:19:49;;;;;;;0.47;0.47;;;8.50;99.90;;;;;;5036303;28;20052;-70
2023/12/10 06:22:15;;;;;;;0.10;0.10;;;8.50;99.90;;;;;;5043504;28;20049;-70
2023/12/10 06:24:41;;;;;;;1.75;1.55;;;8.50;99.90;;;;;;5046001;28;20037;-70
2023/12/10 06:27:06;;;;;;;0.13;0.13;;;8.50;99.90;;;;;;5035220;28;20144;-70
2023/12/10 06:29:32;;;;;;;4.88;1.67;;;8.50;99.90;;;;;;5049866;28;20090;-70
2023/12/10 06:31:58;;;;;;;0.00;0.00;;;8.50;99.90;;;;;;5040816;28;20069;-70
2023/12/10 06:34:23;;;;;;;1.10;0.70;;;8.50;99.90;;;;;;5044512;28;20425;-70
2023/12/10 06:36:49;;;;;;;0.10;0.10;;;8.50;99.90;;;;;;5037962;28;20061;-70
2023/12/10 06:39:16;;;;;;;0.00;0.00;;;8.50;99.90;;;;;;5039137;28;20080;-69
2023/12/10 06:41:42;;;;;;;0.10;0.10;;;8.60;99.90;;;;;;5041955;28;20041;-69
2023/12/10 06:44:09;;;;;;;0.30;0.30;;;8.50;99.90;;;;;;5042165;28;20047;-70
2023/12/10 06:46:37;;;;;;;0.10;0.10;;;8.60;99.90;;;;;;5039136;28;20049;-70
2023/12/10 06:49:02;;;;;;;0.10;0.10;;;8.60;99.90;;;;;;5045346;28;20068;-69
2023/12/10 06:51:28;;;;;;;0.10;0.10;;;8.60;99.90;;;;;;5053031;28;20052;-69
2023/12/10 06:53:54;;;;;;;1.88;1.75;;;8.50;99.90;;;;;;5038634;28;20037;-69
2023/12/10 06:56:20;;;;;;;0.00;0.00;;;8.60;99.90;;;;;;5058085;28;20536;-69
2023/12/10 06:58:45;;;;;;;0.00;0.00;;;8.60;99.90;;;;;;5038189;28;20691;-70
2023/12/10 07:01:13;;;;;;;0.28;0.28;;;8.60;99.90;;;;;;5040481;28;20077;-70
2023/12/10 07:03:39;;;;;;;0.10;0.10;;;8.60;99.90;;;;;;5039210;28;20045;-69
2023/12/10 07:06:05;;;;;;;0.32;0.32;;;8.60;99.90;;;;;;5036450;28;20148;-69
2023/12/10 07:08:31;;;;;;;0.10;0.10;;;8.60;99.90;;;;;;5038525;28;20048;-69
2023/12/10 07:10:57;;;;;;;1.45;1.05;;;8.60;99.90;;;;;;5044575;28;20547;-70
2023/12/10 07:13:23;;;;;;;0.10;0.10;;;8.60;99.90;;;;;;5044783;28;20515;-69
2023/12/10 07:15:48;;;;;;;0.95;0.95;;;8.60;99.90;;;;;;5055941;28;20128;-70
2023/12/10 07:18:14;;;;;;;1.38;1.35;;;8.60;99.90;;;;;;5044453;28;20151;-69
2023/12/10 07:20:40;;;;;;;0.10;0.10;;;8.60;99.90;;;;;;5047654;28;20064;-70
2023/12/10 07:23:06;;;;;;;0.10;0.10;;;8.60;99.90;;;;;;5046752;28;20480;-70
2023/12/10 07:25:31;;;;;;;0.20;0.20;;;8.60;99.90;;;;;;5035862;28;20037;-70
2023/12/10 07:27:57;;;;;;;0.10;0.10;;;8.60;99.90;;;;;;5045829;28;20049;-70
2023/12/10 07:30:23;;;;;;;1.02;0.95;;;8.60;99.90;;;;;;5046320;28;20074;-70
2023/12/10 07:32:48;;;;;;;0.10;0.10;;;8.60;99.90;;;;;;5043509;28;20041;-70
2023/12/10 07:35:14;;;;;;;0.63;0.63;;;8.60;99.90;;;;;;5039869;28;20061;-70
2023/12/10 07:37:40;;;;;;;0.10;0.10;;;8.60;99.90;;;;;;5046138;28;20037;-71
2023/12/10 07:40:06;;;;;;;1.20;1.10;;;8.50;99.90;;;;;;5055231;28;20056;-71
2023/12/10 07:42:32;;;;;;;1.15;1.08;;;8.50;99.90;;;;;;5051415;28;20055;-70
2023/12/10 07:44:58;;;;;;;0.32;0.32;;;8.50;99.90;;;;;;5041301;28;20124;-71
2023/12/10 07:47:23;;;;;;;0.10;0.10;;;8.50;99.90;;;;;;5046470;28;20041;-71
2023/12/10 07:49:49;;;;;;;0.55;0.20;;;8.50;99.90;;;;;;5036151;28;20387;-71
2023/12/10 07:52:14;;;;;;;0.73;0.73;;;8.50;99.90;;;;;;5046934;28;20064;-71
2023/12/10 07:54:40;;;;;;;0.10;0.10;;;8.50;99.90;;;;;;5038374;28;20040;-71
2023/12/10 07:57:06;;;;;;;0.10;0.10;;;8.50;99.90;;;;;;5044992;28;20102;-71
2023/12/10 07:59:31;;;;;;;4.95;1.17;;;8.50;99.90;;;;;;5042070;28;20076;-71
2023/12/10 08:01:57;;;;;;;0.75;0.75;;;8.50;99.90;;;;;;5044920;28;20120;-72
2023/12/10 08:04:22;;;;;;;0.03;0.03;;;8.50;99.90;;;;;;5035857;28;20060;-71
2023/12/10 08:06:48;;;;;;;11.10;2.85;;;8.50;99.90;;;;;;5043343;28;20044;-71
2023/12/10 08:09:14;;;;;;;0.30;0.30;;;8.50;99.90;;;;;;5052644;28;20479;-71
2023/12/10 08:11:39;;;;;;;0.25;0.25;;;8.50;99.90;;;;;;5041047;28;20056;-70
2023/12/10 08:14:05;;;;;;;0.45;0.45;;;8.60;99.90;;;;;;5037332;28;20044;-70
2023/12/10 08:16:31;;;;;;;0.10;0.10;;;8.60;99.90;;;;;;5040647;28;20103;-70
2023/12/10 08:18:57;;;;;;;0.10;0.10;;;8.50;99.90;;;;;;5038313;28;20412;-70
2023/12/10 08:21:23;;;;;;;0.22;0.22;;;8.60;99.90;;;;;;5035805;28;20040;-70
2023/12/10 08:23:49;;;;;;;26.05;1.30;;;8.60;99.90;;;;;;5036216;28;20037;-70
2023/12/10 08:26:14;;;;;;;0.03;0.03;;;8.60;99.90;;;;;;5038735;28;20111;-70
2023/12/10 08:28:40;;;;;;;0.10;0.10;;;8.50;99.90;;;;;;5041772;28;20038;-70
2023/12/10 08:31:06;;;;;;;0.60;0.60;;;8.60;99.90;;;;;;5058249;28;20139;-70
2023/12/10 08:33:32;;;;;;;1.80;0.90;;;8.60;99.90;;;;;;5040900;28;20041;-70
2023/12/10 08:35:58;;;;;;;0.43;0.43;;;8.60;99.90;;;;;;5041922;28;20045;-71
2023/12/10 08:38:24;;;;;;;2.42;1.00;;;8.60;99.90;;;;;;5039175;28;20842;-71
2023/12/10 08:40:49;;;;;;;0.25;0.25;;;8.70;99.90;;;;;;5038872;28;20041;-72
2023/12/10 08:43:15;;;;;;;0.32;0.32;;;8.60;99.90;;;;;;5038096;28;20813;-71
2023/12/10 08:45:41;;;;;;;0.85;0.65;;;8.70;99.90;;;;;;5046613;28;20055;-71
2023/12/10 08:48:07;;;;;;;2.10;1.48;;;8.70;99.90;;;;;;5039570;28;20140;-71
2023/12/10 08:50:32;;;;;;;0.10;0.10;;;8.70;99.90;;;;;;5033489;28;20048;-71
2023/12/10 08:52:58;;;;;;;0.50;0.50;;;8.70;99.90;;;;;;5038209;28;20086;-71
2023/12/10 08:55:24;;;;;;;0.10;0.10;;;8.70;99.90;;;;;;5045352;28;20037;-71
2023/12/10 08:57:49;;;;;;;0.10;0.10;;;8.70;99.90;;;;;;5037007;28;20115;-70
2023/12/10 09:00:15;;;;;;;0.85;0.43;;;8.70;99.90;;;;;;5039061;28;20565;-71
2023/12/10 09:02:41;;;;;;;0.10;0.10;;;8.70;99.90;;;;;;5042067;28;20708;-71
2023/12/10 09:05:07;;;;;;;0.10;0.10;;;8.80;99.90;;;;;;5038727;28;20049;-71
2023/12/10 09:07:33;;;;;;;0.10;0.10;;;8.80;99.90;;;;;;5046092;28;20480;-71
2023/12/10 09:09:59;;;;;;;0.10;0.10;;;8.80;99.90;;;;;;5039878;28;20057;-71
2023/12/10 09:12:29;;;;;;;0.47;0.47;;;8.80;99.90;;;;;;5049281;28;20143;-71
2023/12/10 09:14:55;;;;;;;0.20;0.20;;;8.80;99.90;;;;;;5039414;28;20247;-71
2023/12/10 09:17:21;;;;;;;0.38;0.38;;;8.80;99.90;;;;;;5045081;28;20037;-71
2023/12/10 09:19:48;;;;;;;0.88;0.68;;;8.80;99.90;;;;;;5042158;28;20052;-71
2023/12/10 09:22:13;;;;;;;0.28;0.28;;;8.80;99.90;;;;;;5043633;28;20036;-71
2023/12/10 09:24:40;;;;;;;3.92;1.55;;;8.80;99.90;;;;;;5043771;28;20036;-71
2023/12/10 09:27:06;;;;;;;0.15;0.15;;;8.80;99.90;;;;;;5041598;28;20420;-69
2023/12/10 09:29:38;;;;;;;1.95;1.42;;;8.80;99.90;;;;;;5045119;28;20055;-70
2023/12/10 09:32:05;;;;;;;0.10;0.10;;;8.80;99.90;;;;;;5040618;28;20052;-68
2023/12/10 09:34:31;;;;;;;0.73;0.38;;;8.80;99.90;;;;;;5046321;28;20045;-70
2023/12/10 09:36:57;;;;;;;0.00;0.00;;;8.80;99.90;;;;;;5045730;28;20043;-70
2023/12/10 09:39:24;;;;;;;0.13;0.13;;;8.80;99.90;;;;;;5043583;28;21871;-70
2023/12/10 09:41:50;;;;;;;4.05;1.55;;;8.80;99.90;;;;;;5054586;28;20069;-70
2023/12/10 09:44:15;;;;;;;0.10;0.10;;;8.90;99.90;;;;;;5046218;28;20037;-70
2023/12/10 09:46:41;;;;;;;3.20;0.73;;;8.90;99.90;;;;;;5045893;28;20473;-70
2023/12/10 09:49:07;;;;;;;0.68;0.68;;;8.80;99.90;;;;;;5046010;28;20094;-70
2023/12/10 09:51:33;;;;;;;0.10;0.10;;;8.90;99.90;;;;;;5048006;28;20397;-70
2023/12/10 09:53:58;;;;;;;0.63;0.63;;;8.90;99.90;;;;;;5038015;28;20473;-70
2023/12/10 09:56:24;;;;;;;1.55;1.38;;;8.80;99.90;;;;;;5040408;28;20037;-74
2023/12/10 09:58:49;;;;;;;0.45;0.45;;;8.80;99.90;;;;;;5044351;28;20102;-70
2023/12/10 10:01:15;;;;;;;3.35;3.08;;;8.80;99.90;;;;;;5046731;28;20771;-70
2023/12/10 10:03:41;;;;;;;0.10;0.10;;;8.80;99.90;;;;;;5036186;28;20107;-71
2023/12/10 10:06:08;;;;;;;0.30;0.30;;;8.70;99.90;;;;;;5046851;28;20055;-71
2023/12/10 10:08:34;;;;;;;1.08;1.08;;;8.70;99.90;;;;;;5049077;28;20083;-71
2023/12/10 10:10:59;;;;;;;0.20;0.20;;;8.70;99.90;;;;;;5040159;28;20068;-71
2023/12/10 10:13:25;;;;;;;0.00;0.00;;;8.70;99.90;;;;;;5043584;28;20084;-71
2023/12/10 10:15:52;;;;;;;1.38;1.33;;;8.80;99.90;;;;;;5048399;28;20036;-71
2023/12/10 10:18:19;;;;;;;0.55;0.55;;;8.80;99.90;;;;;;5044086;28;20033;-71
2023/12/10 10:20:45;;;;;;;0.55;0.50;;;8.80;99.90;;;;;;5046850;28;20512;-71
2023/12/10 10:23:11;;;;;;;0.75;0.75;;;8.80;99.90;;;;;;5039336;28;20044;-68
2023/12/10 10:25:39;;;;;;;0.13;0.13;;;8.80;99.90;;;;;;5058493;28;20048;-69
2023/12/10 10:28:09;;;;;;;1.85;1.33;;;8.90;99.90;;;;;;5042074;28;20493;-69
2023/12/10 10:30:34;;;;;;;3.72;1.63;;;8.90;99.90;;;;;;5041000;28;20132;-69
2023/12/10 10:33:00;;;;;;;0.65;0.65;;;9.00;99.90;;;;;;5042974;28;20159;-69
2023/12/10 10:35:26;;;;;;;4.28;2.92;;;9.00;99.90;;;;;;5038717;28;20041;-69
2023/12/10 10:37:52;;;;;;;0.82;0.82;;;9.10;99.90;;;;;;5045557;28;20131;-69
2023/12/10 10:40:18;;;;;;;0.85;0.85;;;9.10;99.90;;;;;;5038746;28;20527;-69
2023/12/10 10:42:45;;;;;;;1.48;1.25;;;9.10;99.90;;;;;;5054021;28;20081;-69
2023/12/10 10:45:11;;;;;;;0.80;0.77;;;9.10;99.90;;;;;;5041888;28;20128;-69
2023/12/10 10:47:37;;;;;;;0.90;0.90;;;9.10;99.90;;;;;;5037678;28;20467;-69
2023/12/10 10:50:04;;;;;;;0.00;0.00;;;9.10;99.90;;;;;;5040772;28;20049;-69
2023/12/10 10:52:33;;;;;;;0.50;0.50;;;9.10;99.90;;;;;;5045909;28;20490;-69
2023/12/10 10:55:00;;;;;;;0.82;0.82;;;9.10;99.90;;;;;;5041893;28;20472;-69
2023/12/10 10:57:36;;;;;;;0.10;0.10;;;9.10;99.90;;;;;;5041845;28;20049;-69
2023/12/10 11:00:30;;;;;;;1.73;1.50;;;9.10;99.90;;;;;;5037211;28;20045;-69
2023/12/10 11:03:01;;;;;;;0.17;0.17;;;9.10;99.90;;;;;;5036601;28;20058;-69
2023/12/10 11:05:34;;;;;;;1.50;1.40;;;9.00;99.90;;;;;;5035651;28;20104;-69
2023/12/10 11:08:01;;;;;;;0.10;0.10;;;9.00;99.90;;;;;;5038283;28;20480;-69
2023/12/10 11:10:26;;;;;;;1.95;1.85;;;8.90;99.90;;;;;;5045322;28;20489;-69
2023/12/10 11:12:54;;;;;;;0.50;0.50;;;9.00;99.90;;;;;;5043331;28;20045;-68
2023/12/10 11:15:24;;;;;;;1.38;1.27;;;9.00;99.90;;;;;;5034460;28;20079;-69
2023/12/10 11:17:58;;;;;;;0.35;0.35;;;9.10;99.90;;;;;;5039210;28;20045;-69
2023/12/10 11:20:41;;;;;;;1.58;1.48;;;9.10;99.90;;;;;;5039023;28;20552;-70
2023/12/10 11:23:16;;;;;;;0.13;0.13;;;9.10;99.90;;;;;;5040125;28;20486;-69
2023/12/10 11:25:43;;;;;;;0.25;0.25;;;9.00;99.90;;;;;;5043237;28;20029;-68
2023/12/10 11:28:17;;;;;;;0.00;0.00;;;9.00;99.90;;;;;;5045387;28;20052;-69
2023/12/10 11:30:43;;;;;;;0.55;0.55;;;9.00;99.90;;;;;;5041445;28;20118;-69
2023/12/10 11:33:11;;;;;;;0.55;0.52;;;9.10;99.90;;;;;;5042626;28;20048;-68
2023/12/10 11:35:37;;;;;;;0.10;0.10;;;9.00;99.90;;;;;;5034188;28;20040;-69
2023/12/10 11:38:04;;;;;;;10.60;2.53;;;9.00;99.90;;;;;;5040734;28;20056;-69
2023/12/10 11:40:30;;;;;;;0.10;0.10;;;9.00;99.90;;;;;;5048010;28;20044;-68
2023/12/10 11:43:05;;;;;;;0.05;0.05;;;9.00;99.90;;;;;;5042099;28;20152;-68
2023/12/10 11:45:32;;;;;;;0.10;0.10;;;9.00;99.90;;;;;;5035642;28;20425;-69
2023/12/10 11:47:57;;;;;;;0.10;0.10;;;9.00;99.90;;;;;;5039282;28;20060;-68
2023/12/10 11:50:23;;;;;;;0.10;0.10;;;9.10;99.90;;;;;;5042993;28;20449;-68
2023/12/10 11:52:50;;;;;;;1.27;1.17;;;9.20;99.90;;;;;;5046903;28;20048;-69
2023/12/10 11:55:16;;;;;;;0.80;0.65;;;9.30;99.90;;;;;;5035881;28;20057;-68
2023/12/10 11:57:45;;;;;;;1.55;0.77;;;9.30;99.90;;;;;;5041740;28;20098;-69
2023/12/10 12:00:12;;;;;;;4.30;1.75;;;9.30;99.90;;;;;;5037837;28;20120;-68
2023/12/10 12:02:43;;;;;;;6.93;2.15;;;9.40;99.90;;;;;;5029640;28;20045;-68
2023/12/10 12:05:10;;;;;;;8.30;1.33;;;9.40;99.90;;;;;;5038906;28;20049;-68
2023/12/10 12:07:37;;;;;;;0.00;0.00;;;9.40;99.90;;;;;;5035878;28;20052;-68
2023/12/10 12:10:04;;;;;;;2.42;1.25;;;9.50;99.90;;;;;;5039641;28;20052;-68
2023/12/10 12:12:29;;;;;;;0.20;0.20;;;9.60;99.90;;;;;;5043252;28;20048;-68
2023/12/10 12:14:55;;;;;;;0.10;0.10;;;9.50;99.90;;;;;;5033321;28;20565;-68
2023/12/10 12:17:22;;;;;;;0.22;0.22;;;9.50;99.90;;;;;;5038969;28;20044;-68
2023/12/10 12:19:47;;;;;;;0.95;0.88;;;9.40;99.90;;;;;;5029453;28;20111;-68
2023/12/10 12:22:13;;;;;;;1.38;1.15;;;9.40;99.90;;;;;;5038086;28;20037;-68
2023/12/10 12:24:39;;;;;;;5.18;1.38;;;9.40;99.90;;;;;;5042728;28;20392;-68
2023/12/10 12:27:06;;;;;;;0.95;0.95;;;9.40;99.90;;;;;;5035509;28;20041;-69
2023/12/10 12:29:33;;;;;;;38.38;1.73;;;9.40;99.90;;;;;;5046377;28;20048;-68
2023/12/10 12:31:59;;;;;;;0.70;0.70;;;9.40;99.90;;;;;;5042317;28;20480;-68
2023/12/10 12:34:26;;;;;;;0.35;0.35;;;9.30;99.90;;;;;;5034917;28;20049;-68
2023/12/10 12:36:52;;;;;;;0.20;0.20;;;9.30;99.90;;;;;;5046222;28;20047;-69
2023/12/10 12:39:17;;;;;;;0.28;0.28;;;9.30;99.90;;;;;;5043328;28;20049;-69
2023/12/10 12:41:43;;;;;;;0.55;0.55;;;9.30;99.90;;;;;;5031823;28;20447;-69
2023/12/10 12:44:10;;;;;;;2.60;1.10;;;9.20;99.90;;;;;;5046020;28;20049;-68
2023/12/10 12:46:35;;;;;;;13.90;3.72;;;9.20;99.90;;;;;;5034438;28;20045;-68
2023/12/10 12:49:01;;;;;;;0.13;0.13;;;9.20;99.90;;;;;;5040633;28;20094;-68
2023/12/10 12:51:30;;;;;;;0.20;0.20;;;9.20;99.90;;;;;;5042225;28;20045;-68